Terminal Aerodrome Forecast
Issued by NWS Pittsburgh, PA

Current Version | Previous Version | Text Only | Print | Product List | Glossary Off
Versions: 1 2 3 4 5 6 7 8 9 10 11 12 13 14 15 16 17 18 19 20 21 22 23 24 25 26 27

000
FTUS41 KPBZ 211308 AAA
TAFPIT
TAF AMD
KPIT 211308Z 2113/2218 25007KT P6SM VCSH SCT025 BKN070
     FM211600 26010G15KT P6SM BKN050
     FM220000 27008KT P6SM FEW250
     FM220900 31005KT 6SM BR BKN010
     FM221400 32004KT P6SM SCT050=

USA.gov is the U.S. government's official web portal to all federal, state and local government web resources and services.